createdAt,value
2018-08-17T00:00:57.797Z,2.00
2018-08-17T00:06:01.517Z,2.50
2018-08-17T00:11:05.245Z,3.00
2018-08-17T00:16:08.937Z,3.00
2018-08-17T00:21:12.541Z,3.00
2018-08-17T00:26:16.233Z,3.00
2018-08-17T00:31:19.847Z,2.00
2018-08-17T00:36:23.491Z,3.00
2018-08-17T00:41:27.163Z,3.25
2018-08-17T00:46:31.229Z,2.20
2018-08-17T00:51:34.910Z,2.75
2018-08-17T00:56:38.495Z,2.00
2018-08-17T01:01:42.210Z,3.00
2018-08-17T01:06:45.930Z,3.00
2018-08-17T01:11:49.677Z,2.00
2018-08-17T01:16:53.340Z,2.75
2018-08-17T01:21:57.028Z,2.50
2018-08-17T01:27:00.637Z,2.40
2018-08-17T01:32:04.317Z,2.75
2018-08-17T01:37:08.028Z,3.00
2018-08-17T01:42:11.753Z,2.20
2018-08-17T01:47:15.469Z,2.00
2018-08-17T01:52:19.143Z,2.00
2018-08-17T01:57:22.853Z,1.80
2018-08-17T02:02:26.474Z,2.75
2018-08-17T02:07:30.149Z,2.50
2018-08-17T02:12:33.840Z,2.75
2018-08-17T02:17:37.458Z,2.00
2018-08-17T02:22:41.141Z,2.20
2018-08-17T02:27:44.770Z,2.60
2018-08-17T02:32:48.452Z,2.80
2018-08-17T02:37:52.087Z,2.40
2018-08-17T02:42:55.780Z,2.00
2018-08-17T02:47:59.374Z,2.00
2018-08-17T02:53:03.085Z,3.00
2018-08-17T02:58:06.730Z,1.60
2018-08-17T03:03:10.462Z,2.40
2018-08-17T03:08:14.202Z,2.00
2018-08-17T03:13:18.829Z,1.80
2018-08-17T03:18:22.518Z,2.00
2018-08-17T03:23:26.197Z,3.00
2018-08-17T03:28:30.006Z,1.80
2018-08-17T03:33:33.639Z,2.00
2018-08-17T03:38:37.493Z,2.75
2018-08-17T03:43:41.177Z,2.25
2018-08-17T03:48:44.781Z,4.50
2018-08-17T03:53:48.551Z,6.25
2018-08-17T03:58:52.333Z,6.75
2018-08-17T04:03:56.028Z,6.20
2018-08-17T04:08:59.846Z,8.80
2018-08-17T04:14:03.656Z,10.50
2018-08-17T04:19:07.340Z,10.00
2018-08-17T04:24:11.021Z,9.80
2018-08-17T04:29:14.846Z,9.50
2018-08-17T04:34:18.528Z,10.75
2018-08-17T04:39:22.342Z,8.50
2018-08-17T04:44:27.022Z,10.75
2018-08-17T04:49:30.782Z,10.25
2018-08-17T04:54:34.459Z,10.25
2018-08-17T04:59:38.237Z,10.25
2018-08-17T05:04:41.993Z,20.60
2018-08-17T05:09:45.739Z,19.60
2018-08-17T05:14:49.402Z,12.00
2018-08-17T05:19:53.815Z,9.80
2018-08-17T05:24:57.508Z,8.75
2018-08-17T05:30:02.342Z,7.50
2018-08-17T05:35:06.795Z,10.00
2018-08-17T05:40:10.457Z,8.20
2018-08-17T05:45:14.189Z,9.60
2018-08-17T05:50:17.787Z,9.00
2018-08-17T05:55:21.462Z,8.40
2018-08-17T06:00:25.242Z,9.00
2018-08-17T06:05:28.984Z,9.00
2018-08-17T06:10:32.586Z,8.00
2018-08-17T06:15:36.242Z,14.00
2018-08-17T06:20:39.915Z,12.80
2018-08-17T06:25:43.647Z,10.00
2018-08-17T06:30:47.269Z,9.25
2018-08-17T06:35:51.148Z,11.25
2018-08-17T06:40:54.801Z,8.75
2018-08-17T06:45:58.485Z,9.00
2018-08-17T06:51:02.184Z,9.00
2018-08-17T06:56:05.904Z,9.75
2018-08-17T07:01:09.667Z,9.40
2018-08-17T07:06:13.374Z,9.25
2018-08-17T07:11:17.013Z,9.75
2018-08-17T07:16:21.539Z,8.00
2018-08-17T07:21:25.156Z,8.75
2018-08-17T07:26:29.372Z,8.40
2018-08-17T07:31:33.095Z,10.00
2018-08-17T07:36:36.755Z,8.80
2018-08-17T07:41:40.435Z,9.80
2018-08-17T07:46:44.204Z,9.50
2018-08-17T07:51:47.869Z,8.25
2018-08-17T07:56:51.511Z,10.75
2018-08-17T08:01:55.165Z,11.00
2018-08-17T08:06:58.782Z,10.40
2018-08-17T08:12:02.427Z,10.00
2018-08-17T08:17:06.234Z,10.00
2018-08-17T08:22:09.901Z,10.75
2018-08-17T08:27:13.562Z,10.00
2018-08-17T08:32:17.197Z,9.50
2018-08-17T08:37:21.165Z,10.60
2018-08-17T08:42:24.773Z,9.80
2018-08-17T08:47:28.472Z,8.40
2018-08-17T08:52:32.166Z,10.00
2018-08-17T08:57:36.134Z,10.40
2018-08-17T09:02:40.161Z,9.40
2018-08-17T09:07:44.266Z,9.00
2018-08-17T09:12:47.867Z,10.00
2018-08-17T09:17:51.514Z,9.40
2018-08-17T09:22:55.165Z,8.00
2018-08-17T09:27:58.830Z,7.00
2018-08-17T09:33:02.500Z,8.75
2018-08-17T09:38:06.294Z,9.25
2018-08-17T09:43:09.920Z,9.00
2018-08-17T09:48:13.632Z,8.50
2018-08-17T09:53:17.291Z,9.50
2018-08-17T09:58:21.006Z,8.25
2018-08-17T10:03:29.960Z,8.25
2018-08-17T10:10:43.552Z,9.25
2018-08-17T10:15:47.256Z,9.00
2018-08-17T10:20:50.935Z,7.00
2018-08-17T10:25:54.505Z,8.75
2018-08-17T10:30:58.139Z,8.25
2018-08-17T10:36:01.740Z,7.00
2018-08-17T10:41:05.358Z,9.80
2018-08-17T10:46:09.026Z,8.75
2018-08-17T10:51:12.630Z,7.75
2018-08-17T10:56:16.282Z,8.20
2018-08-17T11:01:19.865Z,8.50
2018-08-17T11:06:23.467Z,7.00
2018-08-17T11:11:27.077Z,8.00
2018-08-17T11:16:30.801Z,6.40
2018-08-17T11:21:34.397Z,7.75
2018-08-17T11:26:38.711Z,7.75
2018-08-17T11:31:42.282Z,7.25
2018-08-17T11:36:45.953Z,8.20
2018-08-17T11:41:49.539Z,7.20
2018-08-17T11:46:53.264Z,7.00
2018-08-17T11:51:57.096Z,7.00
2018-08-17T11:57:00.707Z,6.80
2018-08-17T12:02:04.415Z,8.25
2018-08-17T12:07:07.988Z,7.25
2018-08-17T12:12:11.570Z,6.40
2018-08-17T12:17:15.660Z,7.75
2018-08-17T12:22:19.284Z,7.75
2018-08-17T12:27:23.128Z,8.50
2018-08-17T12:32:26.824Z,7.40
2018-08-17T12:37:30.383Z,7.50
2018-08-17T12:42:36.297Z,7.25
2018-08-17T12:47:40.138Z,7.25
2018-08-17T12:52:43.768Z,7.20
2018-08-17T12:57:47.406Z,7.50
2018-08-17T13:02:50.923Z,7.40
2018-08-17T13:07:54.478Z,6.60
2018-08-17T13:13:03.150Z,7.75
2018-08-17T13:18:15.984Z,9.20
2018-08-17T13:23:19.957Z,7.60
2018-08-17T13:28:23.681Z,6.75
2018-08-17T13:33:27.335Z,7.40
2018-08-17T13:38:30.921Z,7.20
2018-08-17T13:43:34.545Z,7.20
2018-08-17T13:48:38.201Z,8.00
2018-08-17T13:53:41.820Z,7.60
2018-08-17T13:58:45.426Z,6.75
2018-08-17T14:03:49.082Z,7.00
2018-08-17T14:08:53.026Z,7.60
2018-08-17T14:13:56.742Z,7.00
2018-08-17T14:19:00.416Z,6.75
2018-08-17T14:24:04.097Z,7.25
2018-08-17T14:29:07.795Z,6.75
2018-08-17T14:34:11.446Z,6.20
2018-08-17T14:39:15.135Z,7.40
2018-08-17T14:44:18.833Z,8.20
2018-08-17T14:49:22.526Z,8.50
2018-08-17T14:54:26.202Z,8.25
2018-08-17T14:59:29.851Z,7.40
2018-08-17T15:04:33.475Z,6.25
2018-08-17T15:09:37.030Z,6.60
2018-08-17T15:14:40.681Z,7.40
2018-08-17T15:19:44.333Z,6.75
2018-08-17T15:24:47.937Z,8.00
2018-08-17T15:29:51.581Z,7.40
2018-08-17T15:34:55.204Z,7.40
2018-08-17T15:39:58.829Z,6.80
2018-08-17T15:45:03.560Z,5.75
2018-08-17T15:50:12.329Z,6.17
2018-08-17T15:55:16.140Z,6.75
2018-08-17T16:00:20.742Z,5.50
2018-08-17T16:05:24.374Z,6.80
2018-08-17T16:10:28.036Z,7.00
2018-08-17T16:15:31.629Z,6.00
2018-08-17T16:20:35.243Z,6.25
2018-08-17T16:25:38.905Z,6.00
2018-08-17T16:30:42.500Z,6.75
2018-08-17T16:35:46.132Z,6.25
2018-08-17T16:40:53.747Z,6.20
2018-08-17T16:45:57.398Z,7.25
2018-08-17T16:51:01.052Z,5.75
2018-08-17T16:56:04.820Z,7.20
2018-08-17T17:01:08.451Z,7.25
2018-08-17T17:06:12.059Z,6.50
2018-08-17T17:11:15.635Z,8.00
2018-08-17T17:16:19.293Z,6.00
2018-08-17T17:21:22.906Z,6.20
2018-08-17T17:26:26.536Z,7.40
2018-08-17T17:31:30.149Z,5.50
2018-08-17T17:36:33.846Z,7.00
2018-08-17T17:41:37.563Z,6.00
2018-08-17T17:46:41.686Z,6.00
2018-08-17T17:51:45.314Z,6.50
2018-08-17T17:56:56.807Z,7.00
2018-08-17T18:02:00.418Z,6.50
2018-08-17T18:07:04.667Z,7.00
2018-08-17T18:12:09.289Z,7.25
2018-08-17T18:17:12.935Z,6.25
2018-08-17T18:22:20.495Z,6.50
2018-08-17T18:27:24.204Z,7.75
2018-08-17T18:32:27.789Z,9.20
2018-08-17T18:37:31.804Z,6.20
2018-08-17T18:42:35.755Z,7.40
2018-08-17T18:47:39.547Z,8.75
2018-08-17T18:52:43.493Z,7.00
2018-08-17T18:57:47.262Z,6.75
2018-08-17T19:02:50.946Z,7.80
2018-08-17T19:07:54.558Z,8.00
2018-08-17T19:12:58.355Z,7.75
2018-08-17T19:18:02.067Z,8.25
2018-08-17T19:23:05.850Z,7.40
2018-08-17T19:28:09.593Z,8.00
2018-08-17T19:33:13.725Z,6.00
2018-08-17T19:38:17.461Z,7.75
2018-08-17T19:43:21.359Z,8.75
2018-08-17T19:48:25.016Z,9.00
2018-08-17T19:53:28.956Z,8.00
2018-08-17T19:58:32.764Z,9.00
2018-08-17T20:03:36.461Z,8.00
2018-08-17T20:08:40.091Z,7.80
2018-08-17T20:13:43.760Z,7.20
2018-08-17T20:18:47.498Z,7.75
2018-08-17T20:23:51.391Z,7.80
2018-08-17T20:28:55.472Z,8.00
2018-08-17T20:33:59.217Z,7.60
2018-08-17T20:39:08.507Z,6.80
2018-08-17T20:44:12.162Z,7.20
2018-08-17T20:49:15.862Z,8.00
2018-08-17T20:54:19.549Z,5.80
2018-08-17T20:59:23.169Z,8.50
2018-08-17T21:04:26.732Z,7.00
2018-08-17T21:09:30.362Z,6.00
2018-08-17T21:14:33.941Z,4.60
2018-08-17T21:19:40.403Z,5.75
2018-08-17T21:24:44.022Z,5.60
2018-08-17T21:29:47.617Z,4.40
2018-08-17T21:34:51.256Z,5.00
2018-08-17T21:39:54.884Z,4.60
2018-08-17T21:44:58.573Z,4.20
2018-08-17T21:50:05.206Z,4.25
2018-08-17T21:55:08.984Z,5.20
2018-08-17T22:00:29.018Z,4.60
2018-08-17T22:05:33.968Z,3.80
2018-08-17T22:10:37.553Z,2.80
2018-08-17T22:15:41.217Z,4.00
2018-08-17T22:20:45.270Z,4.00
2018-08-17T22:25:48.968Z,4.25
2018-08-17T22:30:52.680Z,4.40
2018-08-17T22:35:56.337Z,3.00
2018-08-17T22:40:59.985Z,4.75
2018-08-17T22:46:03.646Z,6.20
2018-08-17T22:51:07.607Z,6.00
2018-08-17T22:56:11.183Z,6.75
2018-08-17T23:01:14.948Z,5.00
2018-08-17T23:06:18.607Z,5.25
2018-08-17T23:11:33.383Z,4.75
2018-08-17T23:16:37.053Z,5.50
2018-08-17T23:21:40.971Z,5.00
2018-08-17T23:26:44.613Z,5.00
2018-08-17T23:31:48.490Z,5.50
2018-08-17T23:36:52.054Z,4.50
2018-08-17T23:41:55.762Z,4.40
2018-08-17T23:46:59.397Z,4.00
2018-08-17T23:52:03.082Z,5.75
2018-08-17T23:57:06.792Z,4.60
